Time;durP1;ratioP1;P1;durP2;ratioP2;P2;SDS_P1;SDS_P2;PMS_P1;PMS_P2;Temp;Humidity;BMP_temperature;BMP_pressure;BME280_temperature;BME280_humidity;BME280_pressure;Samples;Min_cycle;Max_cycle;Signal;HPM_P1;HPM_P2
2023/06/10 00:02:21;;;;;;;21.90;13.00;;;;;;;19.02;100.00;99126.41;105606;1258;74611;-70
2023/06/10 00:04:48;;;;;;;18.70;14.80;;;;;;;19.16;100.00;99127.13;105577;1258;69152;-70
2023/06/10 00:07:15;;;;;;;27.10;14.00;;;;;;;19.30;100.00;99126.79;105523;1258;71637;-73
2023/06/10 00:09:42;;;;;;;15.60;14.10;;;;;;;19.17;100.00;99128.48;105561;1259;61967;-73
2023/06/10 00:12:12;;;;;;;24.00;14.50;;;;;;;18.64;100.00;99125.76;105603;1254;60455;-70
2023/06/10 00:14:40;;;;;;;22.80;15.20;;;;;;;18.67;100.00;99120.52;105492;1258;74367;-70
2023/06/10 00:17:08;;;;;;;;;;;;;;;18.73;100.00;99121.96;105593;1259;68505;-70
2023/06/10 00:19:38;;;;;;;17.20;15.50;;;;;;;18.75;100.00;99118.11;105540;1259;72607;-69
2023/06/10 00:22:05;;;;;;;17.20;14.50;;;;;;;18.48;100.00;99117.30;105560;1259;61705;-69
2023/06/10 00:24:32;;;;;;;18.80;14.10;;;;;;;18.40;100.00;99116.48;105521;1259;60647;-70
2023/06/10 00:26:59;;;;;;;19.00;15.60;;;;;;;18.33;100.00;99117.85;105558;1260;74363;-70
2023/06/10 00:29:25;;;;;;;22.30;16.10;;;;;;;18.57;100.00;99113.95;105523;1256;69160;-70
2023/06/10 00:31:57;;;;;;;19.20;16.10;;;;;;;18.63;100.00;99115.40;105528;1257;72818;-72
2023/06/10 00:34:25;;;;;;;20.20;18.00;;;;;;;18.61;100.00;99113.58;105592;1259;61704;-70
2023/06/10 00:36:52;;;;;;;24.10;19.90;;;;;;;18.69;100.00;99110.84;105567;1259;61462;-70
2023/06/10 00:39:19;;;;;;;25.30;20.50;;;;;;;18.60;100.00;99114.30;105522;1258;74459;-68
2023/06/10 00:41:46;;;;;;;24.10;20.50;;;;;;;18.47;100.00;99106.80;105578;1259;68634;-69
2023/06/10 00:44:12;;;;;;;24.00;21.50;;;;;;;18.58;100.00;99104.05;105547;1265;73004;-71
2023/06/10 00:46:39;;;;;;;24.00;21.40;;;;;;;18.62;100.00;99102.44;105561;1255;61912;-70
2023/06/10 00:49:07;;;;;;;20.90;17.20;;;;;;;18.73;100.00;99099.90;105626;1255;60505;-72
2023/06/10 00:51:36;;;;;;;25.30;19.20;;;;;;;18.69;100.00;99098.97;105649;1258;73806;-72
2023/06/10 00:54:03;;;;;;;21.70;19.30;;;;;;;18.60;100.00;99094.98;105703;1257;68072;-74
2023/06/10 00:56:30;;;;;;;24.30;19.90;;;;;;;18.64;100.00;99095.21;105698;1259;72631;-70
2023/06/10 00:58:57;;;;;;;23.00;18.20;;;;;;;18.54;100.00;99092.30;105609;1253;61844;-72
2023/06/10 01:01:23;;;;;;;25.20;19.30;;;;;;;18.58;100.00;99094.73;105673;1259;60443;-72
2023/06/10 01:03:50;;;;;;;20.80;17.10;;;;;;;18.74;100.00;99092.41;105733;1255;74161;-72
2023/06/10 01:06:39;;;;;;;18.40;16.60;;;;;;;18.50;100.00;99091.16;105661;1257;68437;-72
2023/06/10 01:09:19;;;;;;;20.10;17.90;;;;;;;18.57;100.00;99089.27;105749;1260;73150;-71
2023/06/10 01:12:03;;;;;;;25.70;17.30;;;;;;;18.65;100.00;99089.69;105725;1257;60496;-70
2023/06/10 01:14:31;;;;;;;23.90;19.40;;;;;;;18.75;100.00;99091.18;105780;1259;60752;-72
2023/06/10 01:17:00;;;;;;;19.00;17.00;;;;;;;18.68;100.00;99086.17;105630;1259;74369;-71
2023/06/10 01:19:28;;;;;;;26.80;21.00;;;;;;;18.67;100.00;99090.70;105711;1253;69126;-71
2023/06/10 01:21:55;;;;;;;29.20;20.20;;;;;;;18.83;100.00;99090.90;105686;1257;71694;-70
2023/06/10 01:24:22;;;;;;;26.20;21.70;;;;;;;18.69;100.00;99093.27;105735;1258;61757;-70
2023/06/10 01:26:49;;;;;;;23.60;19.30;;;;;;;18.65;100.00;99093.17;105627;1254;60462;-72
2023/06/10 01:29:22;;;;;;;27.00;21.30;;;;;;;18.68;100.00;99099.66;105735;1257;74261;-72
2023/06/10 01:31:49;;;;;;;33.90;22.80;;;;;;;18.57;100.00;99098.27;105655;1259;67262;-71
2023/06/10 01:34:17;;;;;;;32.50;24.30;;;;;;;18.46;100.00;99099.00;105702;1266;73063;-69
2023/06/10 01:36:47;;;;;;;32.80;23.80;;;;;;;18.29;100.00;99097.96;105795;1253;61821;-70
2023/06/10 01:39:18;;;;;;;38.10;26.60;;;;;;;18.12;100.00;99101.23;105670;1254;60614;-69
2023/06/10 01:41:45;;;;;;;31.80;24.20;;;;;;;18.16;100.00;99095.02;105564;1261;72662;-70
2023/06/10 01:44:11;;;;;;;29.10;23.00;;;;;;;18.17;100.00;99095.98;105665;1255;68945;-70
2023/06/10 01:46:39;;;;;;;25.70;22.40;;;;;;;18.09;100.00;99101.05;105718;1257;73190;-69
2023/06/10 01:49:06;;;;;;;51.60;34.10;;;;;;;18.14;100.00;99104.44;105586;1254;61921;-70
2023/06/10 01:51:34;;;;;;;68.00;40.30;;;;;;;17.86;100.00;99114.13;105680;1259;60534;-70
2023/06/10 01:54:01;;;;;;;77.40;43.70;;;;;;;17.60;100.00;99111.71;105699;1258;74260;-71
2023/06/10 01:56:27;;;;;;;74.70;41.80;;;;;;;17.57;100.00;99106.96;105690;1256;69197;-72
2023/06/10 01:58:58;;;;;;;85.40;46.40;;;;;;;17.46;100.00;99104.81;105663;1257;73118;-70
2023/06/10 02:01:27;;;;;;;78.70;42.90;;;;;;;17.30;100.00;99102.27;105563;1258;62399;-69
2023/06/10 02:03:54;;;;;;;83.60;40.90;;;;;;;17.23;100.00;99109.83;105679;1258;60534;-70
2023/06/10 02:06:20;;;;;;;49.70;32.30;;;;;;;17.25;100.00;99109.99;105667;1258;74259;-70
2023/06/10 02:08:47;;;;;;;58.00;32.50;;;;;;;17.16;100.00;99105.20;105736;1254;68910;-69
2023/06/10 02:11:15;;;;;;;56.80;32.50;;;;;;;17.22;100.00;99100.27;105684;1257;72612;-69
2023/06/10 02:13:42;;;;;;;54.00;33.00;;;;;;;17.15;100.00;99108.70;105721;1258;61767;-70
2023/06/10 02:16:12;;;;;;;51.20;31.60;;;;;;;17.14;100.00;99107.11;105659;1257;60567;-72
2023/06/10 02:18:42;;;;;;;49.50;29.50;;;;;;;17.20;100.00;99109.18;105718;1257;74250;-75
2023/06/10 02:21:10;;;;;;;44.40;27.50;;;;;;;17.25;100.00;99109.61;105736;1254;68777;-69
2023/06/10 02:23:37;;;;;;;49.60;31.30;;;;;;;17.12;100.00;99114.36;105710;1260;73071;-70
2023/06/10 02:26:04;;;;;;;38.30;26.80;;;;;;;17.13;100.00;99113.10;105745;1254;61692;-69
2023/06/10 02:28:31;;;;;;;38.50;25.00;;;;;;;17.23;100.00;99109.70;105802;1253;60505;-69
2023/06/10 02:30:59;;;;;;;36.60;26.70;;;;;;;17.23;100.00;99112.95;105691;1257;73844;-70
2023/06/10 02:33:27;;;;;;;38.70;27.10;;;;;;;17.15;100.00;99115.70;105683;1254;68911;-69
2023/06/10 02:35:53;;;;;;;40.20;25.20;;;;;;;17.33;100.00;99117.27;105744;1253;72943;-70
2023/06/10 02:38:22;;;;;;;32.80;24.80;;;;;;;17.42;100.00;99121.06;105713;1257;61739;-69
2023/06/10 02:40:49;;;;;;;45.60;27.30;;;;;;;17.68;100.00;99118.85;105784;1255;60405;-73
2023/06/10 02:43:17;;;;;;;61.30;35.20;;;;;;;18.03;100.00;99119.84;105632;1260;74283;-68
2023/06/10 02:45:44;;;;;;;52.60;36.70;;;;;;;18.29;100.00;99121.02;105746;1254;69567;-68
2023/06/10 02:48:11;;;;;;;45.10;32.00;;;;;;;18.16;100.00;99122.02;105718;1257;73037;-68
2023/06/10 02:50:40;;;;;;;50.20;31.50;;;;;;;18.17;100.00;99118.16;105645;1257;60512;-69
2023/06/10 02:53:16;;;;;;;48.80;31.40;;;;;;;18.33;100.00;99118.11;105594;1259;60429;-68
2023/06/10 02:55:46;;;;;;;50.00;31.60;;;;;;;18.55;100.00;99118.52;105515;1268;74756;-69
2023/06/10 02:58:15;;;;;;;52.50;28.00;;;;;;;18.54;100.00;99121.48;105632;1254;68630;-70
2023/06/10 03:00:44;;;;;;;38.50;26.70;;;;;;;18.56;100.00;99121.05;105622;1261;72584;-70
2023/06/10 03:03:12;;;;;;;35.00;24.40;;;;;;;18.66;100.00;99123.84;105635;1254;61897;-69
2023/06/10 03:05:47;;;;;;;30.20;22.80;;;;;;;18.69;100.00;99123.23;105623;1258;60530;-70
2023/06/10 03:08:14;;;;;;;22.60;19.90;;;;;;;18.87;100.00;99126.83;105610;1258;74322;-70
2023/06/10 03:10:41;;;;;;;27.50;19.70;;;;;;;19.20;100.00;99131.16;105612;1254;68849;-74
2023/06/10 03:13:09;;;;;;;23.90;18.70;;;;;;;19.39;100.00;99128.89;105591;1258;71611;-70
2023/06/10 03:15:37;;;;;;;25.00;19.30;;;;;;;19.54;100.00;99125.86;105625;1255;61766;-68
2023/06/10 03:18:06;;;;;;;21.20;17.50;;;;;;;19.66;100.00;99130.67;105528;1254;60437;-68
2023/06/10 03:20:39;;;;;;;18.60;16.50;;;;;;;19.81;100.00;99125.20;105688;1259;74704;-71
2023/06/10 03:23:07;;;;;;;23.30;18.00;;;;;;;19.96;100.00;99130.21;105734;1255;69126;-68
2023/06/10 03:25:35;;;;;;;21.40;17.10;;;;;;;20.08;100.00;99129.65;105713;1257;72520;-70
2023/06/10 03:28:02;;;;;;;16.90;15.00;;;;;;;20.24;100.00;99130.98;105724;1254;61694;-71
2023/06/10 03:30:29;;;;;;;16.60;14.20;;;;;;;20.18;100.00;99130.05;105700;1254;60429;-71
2023/06/10 03:32:56;;;;;;;15.90;14.20;;;;;;;20.05;100.00;99125.31;105705;1257;74077;-72
2023/06/10 03:35:25;;;;;;;19.10;15.70;;;;;;;20.05;100.00;99134.60;105522;1254;69132;-70
2023/06/10 03:37:51;;;;;;;23.30;16.40;;;;;;;20.20;100.00;99134.63;105687;1260;73314;-70
2023/06/10 03:40:18;;;;;;;20.60;16.50;;;;;;;20.18;100.00;99136.66;105669;1257;61843;-70
2023/06/10 03:42:46;;;;;;;;;;;;;;;20.21;100.00;99143.77;105581;1259;61262;-70
2023/06/10 03:45:14;;;;;;;;;;;;;;;20.46;100.00;99144.38;105738;1257;73733;-68
2023/06/10 03:47:43;;;;;;;18.40;15.40;;;;;;;20.64;100.00;99145.80;105617;1255;69256;-68
2023/06/10 03:50:11;;;;;;;18.80;15.60;;;;;;;20.68;100.00;99140.65;105668;1257;71967;-70
2023/06/10 03:52:39;;;;;;;19.60;15.50;;;;;;;20.98;100.00;99146.30;105649;1253;61762;-70
2023/06/10 03:55:07;;;;;;;17.20;13.90;;;;;;;21.23;100.00;99147.63;105715;1257;60541;-69
2023/06/10 03:57:35;;;;;;;16.70;14.80;;;;;;;21.38;100.00;99149.11;105699;1258;73649;-72
2023/06/10 04:00:08;;;;;;;18.40;15.40;;;;;;;21.44;100.00;99150.89;105703;1254;67700;-70
2023/06/10 04:02:48;;;;;;;21.10;15.60;;;;;;;21.61;100.00;99156.34;105610;1260;73056;-70
2023/06/10 04:05:30;;;;;;;17.30;14.70;;;;;;;21.93;100.00;99156.89;105659;1253;61954;-73
2023/06/10 04:07:57;;;;;;;16.80;14.30;;;;;;;22.31;97.52;99160.90;105665;1254;60552;-71
2023/06/10 04:10:25;;;;;;;18.30;14.60;;;;;;;22.58;93.70;99163.46;105742;1254;74381;-69
2023/06/10 04:12:52;;;;;;;17.60;13.80;;;;;;;22.80;91.10;99169.45;105657;1254;68982;-69
2023/06/10 04:15:19;;;;;;;12.30;11.00;;;;;;;22.85;90.57;99169.61;105719;1257;73340;-69
2023/06/10 04:17:46;;;;;;;13.70;12.20;;;;;;;22.87;91.62;99175.58;105679;1254;60444;-67
2023/06/10 04:20:14;;;;;;;15.10;11.40;;;;;;;23.07;91.83;99175.75;105717;1253;60416;-70
2023/06/10 04:22:44;;;;;;;14.50;11.90;;;;;;;23.28;89.33;99179.17;105617;1254;74152;-68
2023/06/10 04:25:11;;;;;;;15.50;10.70;;;;;;;23.56;85.39;99176.59;105749;1256;69106;-69
2023/06/10 04:27:39;;;;;;;;;;;;;;;23.56;84.17;99173.55;105633;1260;73020;-73
2023/06/10 04:30:07;;;;;;;11.50;10.30;;;;;;;23.51;83.97;99173.33;105752;1254;60436;-70
2023/06/10 04:32:35;;;;;;;16.40;10.90;;;;;;;23.36;83.90;99174.69;105692;1254;60499;-68
2023/06/10 04:35:03;;;;;;;13.80;11.10;;;;;;;23.21;84.91;99182.64;105693;1254;74311;-69
2023/06/10 04:37:32;;;;;;;11.50;10.30;;;;;;;23.23;85.84;99185.75;105717;1255;67478;-67
2023/06/10 04:40:00;;;;;;;12.20;9.50;;;;;;;23.35;84.85;99191.40;105677;1257;72408;-68
2023/06/10 04:42:27;;;;;;;12.70;9.90;;;;;;;23.41;84.37;99193.07;105715;1254;61925;-69
2023/06/10 04:44:54;;;;;;;13.70;10.00;;;;;;;23.52;83.85;99193.83;105644;1254;60507;-69
2023/06/10 04:47:21;;;;;;;11.10;10.00;;;;;;;23.67;80.91;99192.29;105706;1255;73744;-69
2023/06/10 04:49:48;;;;;;;12.60;9.80;;;;;;;23.79;80.44;99194.77;105666;1253;67921;-70
2023/06/10 04:52:15;;;;;;;12.20;9.60;;;;;;;24.07;78.32;99192.98;105658;1258;72964;-70
2023/06/10 04:54:45;;;;;;;11.60;9.50;;;;;;;24.26;74.91;99197.38;105671;1257;61884;-68
2023/06/10 04:57:12;;;;;;;12.90;10.20;;;;;;;24.44;73.91;99197.28;105673;1253;60559;-71
2023/06/10 04:59:39;;;;;;;13.30;9.20;;;;;;;24.86;70.95;99197.70;105691;1255;74099;-70
2023/06/10 05:02:05;;;;;;;13.80;9.40;;;;;;;24.63;70.64;99196.96;105702;1253;69229;-71
2023/06/10 05:04:33;;;;;;;10.00;8.30;;;;;;;24.62;70.23;99199.70;105675;1254;72910;-72
2023/06/10 05:07:00;;;;;;;17.80;10.30;;;;;;;24.56;69.95;99197.13;105675;1255;60478;-72
2023/06/10 05:09:27;;;;;;;15.10;10.40;;;;;;;24.82;69.52;99199.60;105668;1259;60390;-72
2023/06/10 05:11:54;;;;;;;10.20;9.20;;;;;;;24.85;68.95;99198.57;105663;1257;74340;-73
2023/06/10 05:14:21;;;;;;;10.90;9.80;;;;;;;24.61;70.85;99198.62;105694;1254;68998;-72
2023/06/10 05:16:48;;;;;;;12.10;10.90;;;;;;;24.78;70.88;99198.55;105760;1257;73157;-72
2023/06/10 05:19:18;;;;;;;11.60;10.30;;;;;;;24.77;70.93;99200.03;105714;1257;60320;-68
2023/06/10 05:21:45;;;;;;;10.40;9.30;;;;;;;25.18;68.59;99198.82;105669;1253;60412;-73
2023/06/10 05:24:12;;;;;;;13.40;9.00;;;;;;;25.29;66.63;99196.71;105668;1254;72593;-74
2023/06/10 05:26:40;;;;;;;11.00;9.80;;;;;;;25.42;65.81;99198.46;105804;1253;68459;-73
2023/06/10 05:29:09;;;;;;;10.90;9.50;;;;;;;25.63;64.67;99205.14;105710;1257;73203;-72
2023/06/10 05:31:35;;;;;;;10.90;9.20;;;;;;;25.87;63.64;99209.23;105733;1254;61787;-73
2023/06/10 05:34:03;;;;;;;10.10;9.10;;;;;;;26.09;61.44;99208.45;105761;1254;60441;-73
2023/06/10 05:36:30;;;;;;;14.30;9.20;;;;;;;25.93;60.04;99210.29;105738;1255;73615;-71
2023/06/10 05:38:57;;;;;;;12.90;9.10;;;;;;;25.70;61.50;99208.66;105671;1254;68904;-75
2023/06/10 05:41:25;;;;;;;9.40;8.50;;;;;;;26.24;60.37;99208.63;105818;1257;72518;-71
2023/06/10 05:43:52;;;;;;;10.10;8.40;;;;;;;26.40;58.51;99209.77;105739;1257;61501;-73
2023/06/10 05:46:20;;;;;;;9.10;8.20;;;;;;;26.37;57.67;99211.75;105850;1253;60429;-72
2023/06/10 05:48:47;;;;;;;9.40;8.40;;;;;;;26.46;57.45;99211.35;105763;1256;74299;-72
2023/06/10 05:51:14;;;;;;;12.30;7.80;;;;;;;26.45;57.15;99209.30;105663;1254;68614;-71
2023/06/10 05:53:41;;;;;;;11.10;8.40;;;;;;;26.53;56.88;99212.17;105718;1257;72767;-73
2023/06/10 05:56:08;;;;;;;11.80;9.10;;;;;;;26.73;56.35;99217.47;105573;1253;61566;-72
2023/06/10 05:58:35;;;;;;;8.10;7.40;;;;;;;25.26;65.27;99204.86;105643;1254;60460;-72
2023/06/10 06:01:02;;;;;;;9.10;7.70;;;;;;;26.10;62.19;99214.74;105777;1257;73814;-70
2023/06/10 06:03:30;;;;;;;8.80;7.50;;;;;;;25.88;62.10;99215.94;105717;1254;68613;-73
2023/06/10 06:05:57;;;;;;;10.30;7.60;;;;;;;24.66;70.47;99204.55;105850;1254;72999;-73
2023/06/10 06:08:24;;;;;;;10.00;7.10;;;;;;;24.48;71.50;99205.67;105690;1254;60539;-72
2023/06/10 06:10:51;;;;;;;9.00;7.70;;;;;;;24.63;70.66;99206.72;105723;1257;60437;-71
2023/06/10 06:13:18;;;;;;;10.10;7.30;;;;;;;25.14;67.59;99208.00;105691;1257;74157;-72
2023/06/10 06:15:45;;;;;;;13.70;7.10;;;;;;;25.39;66.17;99205.77;105710;1254;69131;-71
2023/06/10 06:18:12;;;;;;;9.90;7.40;;;;;;;25.72;63.83;99210.42;105674;1256;72515;-72
2023/06/10 06:20:39;;;;;;;16.40;7.00;;;;;;;26.05;61.04;99210.26;105669;1253;60461;-70
2023/06/10 06:23:06;;;;;;;9.90;7.20;;;;;;;26.14;60.08;99210.12;105649;1253;60405;-69
2023/06/10 06:25:33;;;;;;;9.40;8.00;;;;;;;26.34;60.35;99214.23;105733;1257;74014;-71
2023/06/10 06:28:00;;;;;;;10.70;6.70;;;;;;;26.54;57.88;99211.17;105702;1253;68988;-71
2023/06/10 06:30:27;;;;;;;8.10;7.20;;;;;;;26.57;56.71;99211.23;105770;1257;73205;-72
2023/06/10 06:32:55;;;;;;;8.60;6.60;;;;;;;26.57;55.83;99212.02;105707;1253;60447;-73
2023/06/10 06:35:22;;;;;;;8.80;6.10;;;;;;;26.81;54.60;99209.88;105694;1253;60441;-74
2023/06/10 06:37:48;;;;;;;10.10;6.10;;;;;;;26.69;54.15;99210.80;105760;1257;74589;-71
2023/06/10 06:40:19;;;;;;;7.80;6.60;;;;;;;26.52;53.44;99206.59;105857;1256;68496;-71
2023/06/10 06:42:46;;;;;;;7.60;6.10;;;;;;;26.36;54.69;99207.66;105694;1253;72427;-71
2023/06/10 06:45:33;;;;;;;7.40;5.80;;;;;;;26.38;54.09;99206.73;105808;1253;60814;-71
2023/06/10 06:48:00;;;;;;;7.30;5.80;;;;;;;26.28;53.50;99208.61;105746;1253;60526;-68
2023/06/10 06:50:27;;;;;;;6.70;5.90;;;;;;;26.04;54.24;99202.71;105632;1257;72351;-70
2023/06/10 06:52:54;;;;;;;7.10;5.80;;;;;;;26.03;54.52;99206.33;105723;1254;68582;-68
2023/06/10 06:55:20;;;;;;;8.20;6.30;;;;;;;26.07;55.66;99208.74;105616;1255;73169;-73
2023/06/10 06:57:47;;;;;;;10.40;6.20;;;;;;;26.19;53.68;99210.91;105626;1254;60484;-68
2023/06/10 07:00:15;;;;;;;7.10;5.80;;;;;;;26.30;52.17;99207.32;105596;1254;60531;-71
2023/06/10 07:02:42;;;;;;;10.20;6.30;;;;;;;26.36;52.92;99206.24;105242;1264;74705;-72
2023/06/10 07:05:08;;;;;;;6.40;5.80;;;;;;;26.81;51.57;99212.31;105667;1254;69750;-70
2023/06/10 07:07:36;;;;;;;8.80;5.00;;;;;;;26.92;49.44;99215.55;105655;1254;72944;-71
2023/06/10 07:10:03;;;;;;;9.00;5.50;;;;;;;27.00;48.78;99213.52;105747;1255;60447;-71
2023/06/10 07:12:30;;;;;;;10.20;6.60;;;;;;;-7.36;58.80;103618.16;105679;1254;60454;-68
2023/06/10 07:14:58;;;;;;;9.50;6.10;;;;;;;27.55;48.51;99211.66;105671;1257;74277;-71
2023/06/10 07:17:26;;;;;;;8.10;6.10;;;;;;;27.45;48.26;99214.52;105694;1254;69196;-72
2023/06/10 07:19:57;;;;;;;7.50;5.70;;;;;;;27.19;49.69;99211.98;105606;1255;72588;-69
2023/06/10 07:22:24;;;;;;;8.80;5.90;;;;;;;27.26;49.43;99216.19;105665;1254;61628;-70
2023/06/10 07:24:51;;;;;;;8.20;6.00;;;;;;;27.30;49.70;99216.77;105563;1254;60462;-72
2023/06/10 07:27:18;;;;;;;6.90;5.40;;;;;;;27.20;49.50;99213.66;105732;1258;73546;-72
2023/06/10 07:29:45;;;;;;;6.50;5.50;;;;;;;27.00;49.90;99215.58;105485;1256;69192;-71
2023/06/10 07:32:11;;;;;;;9.50;6.30;;;;;;;27.01;50.14;99214.56;105645;1260;73004;-70
2023/06/10 07:34:38;;;;;;;13.90;5.80;;;;;;;27.18;49.63;99213.95;105626;1254;60516;-70
2023/06/10 07:37:07;;;;;;;7.00;6.10;;;;;;;27.10;49.25;99212.73;105526;1254;60550;-71
2023/06/10 07:39:34;;;;;;;8.80;6.00;;;;;;;27.00;49.74;99212.19;105690;1257;74157;-71
2023/06/10 07:42:01;;;;;;;9.50;6.00;;;;;;;27.14;49.78;99213.87;105615;1254;68493;-70
2023/06/10 07:44:28;;;;;;;8.90;5.80;;;;;;;27.20;48.91;99211.14;105678;1258;73137;-73
2023/06/10 07:46:55;;;;;;;8.20;5.80;;;;;;;27.19;49.54;99214.81;105642;1254;60509;-73
2023/06/10 07:49:23;;;;;;;8.80;6.30;;;;;;;27.06;49.19;99212.89;105684;1253;60533;-71
2023/06/10 07:51:50;;;;;;;7.80;5.40;;;;;;;27.02;50.09;99212.45;105696;1257;74318;-70
2023/06/10 07:54:17;;;;;;;8.00;6.30;;;;;;;27.07;49.62;99212.29;105618;1260;69246;-73
2023/06/10 07:56:44;;;;;;;12.50;6.50;;;;;;;27.29;49.63;99212.89;105828;1257;72552;-71
2023/06/10 07:59:11;;;;;;;6.30;5.70;;;;;;;27.50;48.77;99208.45;105668;1257;60528;-71
2023/06/10 08:01:39;;;;;;;9.40;5.90;;;;;;;27.49;49.02;99206.55;105850;1253;60443;-69
2023/06/10 08:04:06;;;;;;;;;;;;;;;27.44;48.32;99203.96;105721;1253;72611;-72
2023/06/10 08:06:33;;;;;;;;;;;;;;;27.59;48.98;99208.95;105840;1253;69187;-71
2023/06/10 08:09:00;;;;;;;6.50;5.70;;;;;;;27.74;48.70;99208.33;105687;1257;72814;-74
2023/06/10 08:11:29;;;;;;;6.50;5.50;;;;;;;28.15;46.91;99201.66;105818;1253;60434;-71
2023/06/10 08:13:56;;;;;;;8.20;5.40;;;;;;;28.29;46.26;99203.98;105773;1252;60448;-70
2023/06/10 08:16:23;;;;;;;8.00;5.20;;;;;;;28.48;45.45;99209.45;105738;1257;74228;-70
2023/06/10 08:18:50;;;;;;;6.00;5.30;;;;;;;28.48;44.55;99198.48;105698;1253;68566;-71
2023/06/10 08:21:20;;;;;;;8.40;5.60;;;;;;;28.41;45.28;99200.63;105796;1253;71749;-71
2023/06/10 08:23:47;;;;;;;7.70;5.60;;;;;;;28.60;44.56;99201.64;105678;1253;60448;-70
2023/06/10 08:26:13;;;;;;;9.70;5.70;;;;;;;28.98;43.60;99198.73;105661;1257;60426;-70
2023/06/10 08:28:40;;;;;;;7.80;5.50;;;;;;;28.86;43.12;99200.64;105716;1254;73453;-72
2023/06/10 08:31:07;;;;;;;7.20;5.40;;;;;;;28.77;43.36;99199.00;105686;1253;69198;-70
2023/06/10 08:33:34;;;;;;;6.00;4.50;;;;;;;28.98;42.91;99195.83;105791;1257;72278;-70
2023/06/10 08:36:01;;;;;;;5.60;4.50;;;;;;;28.84;42.37;99194.77;105750;1253;60435;-69
2023/06/10 08:38:28;;;;;;;7.90;4.90;;;;;;;28.57;42.86;99197.21;105722;1253;60475;-72
2023/06/10 08:40:56;;;;;;;6.90;4.90;;;;;;;28.32;43.36;99195.73;105775;1257;74638;-71
2023/06/10 08:43:32;;;;;;;7.40;5.50;;;;;;;28.40;43.61;99198.40;105793;1253;68708;-71
2023/06/10 08:46:00;;;;;;;6.60;5.50;;;;;;;28.56;43.81;99198.46;105868;1253;72627;-69
2023/06/10 08:48:30;;;;;;;5.60;4.90;;;;;;;28.71;43.01;99198.16;105694;1255;60451;-69
2023/06/10 08:50:58;;;;;;;8.00;4.90;;;;;;;28.68;41.59;99196.73;105691;1254;60520;-70
2023/06/10 08:53:26;;;;;;;6.20;5.60;;;;;;;28.54;41.84;99194.60;105587;1260;73713;-71
2023/06/10 08:55:53;;;;;;;9.90;5.90;;;;;;;28.46;42.43;99192.95;105757;1253;68970;-70
2023/06/10 08:58:20;;;;;;;7.10;5.30;;;;;;;28.51;42.86;99189.67;105738;1253;72336;-71
2023/06/10 09:00:47;;;;;;;7.70;5.00;;;;;;;29.30;41.51;99194.15;105776;1253;61602;-70
2023/06/10 09:03:14;;;;;;;5.50;4.80;;;;;;;29.76;39.93;99195.21;105691;1253;60493;-70
2023/06/10 09:05:40;;;;;;;8.10;4.80;;;;;;;29.92;38.85;99198.64;105712;1256;74283;-69
2023/06/10 09:08:09;;;;;;;10.50;5.20;;;;;;;29.93;39.14;99198.56;105761;1253;68650;-71
2023/06/10 09:10:35;;;;;;;9.00;4.80;;;;;;;30.56;38.58;99195.13;105773;1259;73554;-69
2023/06/10 09:13:02;;;;;;;12.20;6.00;;;;;;;30.68;37.74;99199.95;105652;1253;60403;-71
2023/06/10 09:15:29;;;;;;;5.60;4.60;;;;;;;30.63;38.12;99201.45;105570;1253;60532;-70
2023/06/10 09:17:56;;;;;;;11.50;5.10;;;;;;;30.91;36.94;99204.83;105636;1254;74406;-70
2023/06/10 09:20:23;;;;;;;7.90;5.00;;;;;;;31.10;36.69;99206.36;105722;1253;69103;-70
2023/06/10 09:22:49;;;;;;;6.30;3.90;;;;;;;31.17;35.09;99208.15;105756;1257;72952;-67
2023/06/10 09:25:16;;;;;;;9.10;4.40;;;;;;;30.70;35.50;99199.79;105662;1253;60359;-70
2023/06/10 09:27:44;;;;;;;9.30;5.50;;;;;;;30.47;36.33;99199.17;105686;1253;60609;-69
2023/06/10 09:30:29;;;;;;;20.30;15.50;;;;;;;30.49;36.27;99192.68;105712;1257;72626;-67
2023/06/10 09:32:58;;;;;;;7.30;4.90;;;;;;;30.67;36.56;99193.15;105575;1253;69122;-69
2023/06/10 09:35:26;;;;;;;8.00;5.70;;;;;;;30.92;36.09;99191.99;105806;1255;72533;-69
2023/06/10 09:37:54;;;;;;;7.90;4.80;;;;;;;30.94;36.27;99192.71;105828;1257;61010;-71
2023/06/10 09:40:21;;;;;;;15.50;9.40;;;;;;;30.83;36.09;99195.10;105762;1253;60433;-72
2023/06/10 09:42:56;;;;;;;122.40;76.40;;;;;;;30.73;36.05;99192.42;105641;1257;155598;-71
2023/06/10 09:45:23;;;;;;;82.00;49.00;;;;;;;30.46;36.36;99187.70;105742;1253;69940;-72
2023/06/10 09:47:53;;;;;;;39.10;21.70;;;;;;;30.56;37.00;99183.50;105781;1257;72571;-71
2023/06/10 09:50:20;;;;;;;19.70;13.10;;;;;;;30.64;37.47;99179.38;105823;1253;60546;-69
2023/06/10 09:52:50;;;;;;;;;;;;;;;30.41;37.81;99172.84;105752;1253;60563;-72
2023/06/10 09:55:18;;;;;;;8.10;4.90;;;;;;;30.41;37.77;99173.46;105664;1257;74034;-67
2023/06/10 09:57:48;;;;;;;5.70;4.70;;;;;;;30.53;37.70;99179.86;105720;1253;69131;-71
2023/06/10 10:00:15;;;;;;;8.30;4.50;;;;;;;30.66;37.19;99176.52;105730;1256;72804;-72
2023/06/10 10:02:47;;;;;;;;;;;;;;;31.00;36.88;99182.01;105704;1256;60421;-71
2023/06/10 10:05:15;;;;;;;10.10;4.90;;;;;;;31.35;36.88;99177.91;105719;1256;60541;-72
2023/06/10 10:07:43;;;;;;;9.30;5.00;;;;;;;30.43;37.72;99173.89;105732;1257;73762;-71
2023/06/10 10:10:11;;;;;;;19.70;5.10;;;;;;;29.62;39.50;99163.89;105613;1256;68480;-71
2023/06/10 10:12:38;;;;;;;7.30;4.30;;;;;;;29.57;39.26;99163.36;105663;1260;72626;-69
2023/06/10 10:15:08;;;;;;;12.30;4.50;;;;;;;29.38;38.30;99166.16;105617;1256;60631;-70
2023/06/10 10:17:58;;;;;;;4.50;4.10;;;;;;;29.69;38.51;99168.25;105590;1256;60509;-69
2023/06/10 10:20:27;;;;;;;6.50;4.70;;;;;;;29.76;37.89;99163.37;105584;1260;73930;-73
2023/06/10 10:22:56;;;;;;;4.60;4.10;;;;;;;29.50;37.96;99166.66;105668;1256;67540;-71
2023/06/10 10:25:34;;;;;;;5.30;4.30;;;;;;;29.59;38.02;99155.72;105705;1261;72505;-71
2023/06/10 10:28:11;;;;;;;5.80;4.30;;;;;;;29.84;37.13;99158.41;105580;1261;60354;-73
2023/06/10 10:30:49;;;;;;;5.90;4.10;;;;;;;30.17;36.45;99158.35;105791;1256;60649;-71
2023/06/10 10:33:22;;;;;;;6.50;4.20;;;;;;;30.20;36.54;99151.23;105753;1257;73752;-72
2023/06/10 10:35:49;;;;;;;5.60;4.50;;;;;;;30.05;37.28;99157.16;105701;1253;68609;-72
2023/06/10 10:38:16;;;;;;;8.80;4.60;;;;;;;29.78;37.59;99156.34;105836;1253;73165;-69
2023/06/10 10:40:44;;;;;;;4.70;3.90;;;;;;;29.28;37.84;99150.97;105638;1253;60511;-71
2023/06/10 10:43:10;;;;;;;10.20;4.30;;;;;;;28.96;37.90;99148.77;105760;1253;60897;-71
2023/06/10 10:45:37;;;;;;;5.80;4.40;;;;;;;28.69;38.71;99145.38;105730;1258;73596;-70
2023/06/10 10:48:11;;;;;;;8.20;4.70;;;;;;;28.83;38.25;99142.63;105766;1253;68523;-71
2023/06/10 10:50:38;;;;;;;5.70;4.00;;;;;;;28.93;37.67;99141.25;105862;1257;72672;-79
2023/06/10 10:53:05;;;;;;;6.50;4.60;;;;;;;29.24;37.75;99144.48;105761;1253;60475;-71
2023/06/10 10:55:33;;;;;;;;;;;;;;;29.06;37.80;99145.66;105771;1253;60460;-71
2023/06/10 10:58:04;;;;;;;6.50;4.60;;;;;;;28.66;38.40;99138.98;105779;1257;73569;-70
2023/06/10 11:00:44;;;;;;;8.30;5.10;;;;;;;28.34;38.86;99139.05;105745;1253;69131;-71
2023/06/10 11:03:16;;;;;;;11.50;4.90;;;;;;;28.17;39.57;99134.75;105831;1253;71132;-70
2023/06/10 11:05:47;;;;;;;9.70;4.50;;;;;;;28.04;40.22;99127.25;105800;1257;60348;-72
2023/06/10 11:08:33;;;;;;;8.20;5.20;;;;;;;27.74;41.24;99129.79;105702;1253;60453;-69
2023/06/10 11:10:59;;;;;;;7.70;5.10;;;;;;;27.55;42.19;99133.77;105673;1257;73769;-72
2023/06/10 11:13:27;;;;;;;7.30;5.50;;;;;;;27.77;42.71;99128.00;105754;1253;68706;-71
2023/06/10 11:15:57;;;;;;;8.00;5.30;;;;;;;27.81;42.71;99127.10;105787;1257;71451;-72
2023/06/10 11:18:32;;;;;;;6.20;4.30;;;;;;;27.72;41.53;99125.59;105776;1253;61461;-70
2023/06/10 11:21:04;;;;;;;8.80;5.30;;;;;;;27.57;41.81;99119.30;105778;1253;60469;-69
2023/06/10 11:23:38;;;;;;;7.50;5.00;;;;;;;27.45;42.59;99115.71;105818;1253;72440;-72